Time;durP1;ratioP1;P1;durP2;ratioP2;P2;SDS_P1;SDS_P2;PMS_P1;PMS_P2;Temp;Humidity;BMP_temperature;BMP_pressure;BME280_temperature;BME280_humidity;BME280_pressure;Samples;Min_cycle;Max_cycle;Signal;HPM_P1;HPM_P2
2024/02/15 00:01:39;;;;;;;16.23;9.48;;;10.30;99.90;;;;;;5019163;28;20049;-64
2024/02/15 00:04:05;;;;;;;14.82;9.13;;;10.30;99.90;;;;;;5015715;28;20036;-65
2024/02/15 00:06:31;;;;;;;14.30;9.27;;;10.30;99.90;;;;;;5013420;28;20022;-65
2024/02/15 00:08:56;;;;;;;15.10;9.40;;;10.30;99.90;;;;;;5016834;28;20304;-66
2024/02/15 00:11:22;;;;;;;16.05;10.65;;;10.30;99.90;;;;;;5024985;28;20029;-65
2024/02/15 00:13:48;;;;;;;16.48;9.63;;;10.30;99.90;;;;;;5025592;28;20032;-66
2024/02/15 00:16:17;;;;;;;13.27;8.88;;;10.30;99.90;;;;;;5020814;28;20034;-64
2024/02/15 00:18:43;;;;;;;19.30;9.68;;;10.40;99.90;;;;;;5032475;28;20057;-65
2024/02/15 00:21:08;;;;;;;17.67;10.50;;;10.40;99.90;;;;;;5021501;28;20033;-65
2024/02/15 00:23:34;;;;;;;12.77;9.02;;;10.30;99.90;;;;;;5021447;28;20041;-64
2024/02/15 00:26:00;;;;;;;15.52;9.55;;;10.40;99.90;;;;;;5018868;28;20221;-65
2024/02/15 00:28:26;;;;;;;14.93;9.35;;;10.40;99.90;;;;;;5016873;28;20014;-64
2024/02/15 00:30:52;;;;;;;14.45;9.30;;;10.30;99.90;;;;;;5015946;28;20030;-65
2024/02/15 00:33:18;;;;;;;12.70;8.82;;;10.30;99.90;;;;;;5031887;28;20018;-66
2024/02/15 00:35:44;;;;;;;13.95;9.35;;;10.30;99.90;;;;;;5024932;28;20085;-66
2024/02/15 00:38:09;;;;;;;15.48;9.75;;;10.40;99.90;;;;;;5024550;28;20072;-65
2024/02/15 00:40:35;;;;;;;13.82;8.73;;;10.40;99.90;;;;;;5017719;28;20051;-65
2024/02/15 00:43:00;;;;;;;14.00;8.85;;;10.40;99.90;;;;;;5029303;28;20022;-65
2024/02/15 00:45:26;;;;;;;12.02;8.30;;;10.40;99.90;;;;;;5025203;28;20034;-65
2024/02/15 00:47:51;;;;;;;16.02;10.05;;;10.40;99.90;;;;;;5024609;28;20088;-65
2024/02/15 00:50:17;;;;;;;13.27;9.43;;;10.40;99.90;;;;;;5021075;28;20056;-67
2024/02/15 00:52:42;;;;;;;13.93;8.57;;;10.40;99.90;;;;;;5018511;28;20034;-64
2024/02/15 00:55:11;;;;;;;15.32;9.68;;;10.40;99.90;;;;;;5017836;28;20569;-65
2024/02/15 00:57:36;;;;;;;12.63;9.48;;;10.40;99.90;;;;;;5018725;28;20105;-65
2024/02/15 01:00:05;;;;;;;15.23;9.63;;;10.40;99.90;;;;;;5018985;28;20054;-66
2024/02/15 01:02:31;;;;;;;17.50;9.80;;;10.50;99.90;;;;;;5023776;28;20025;-66
2024/02/15 01:04:58;;;;;;;18.85;10.15;;;10.50;99.90;;;;;;5025512;28;20032;-66
2024/02/15 01:07:27;;;;;;;16.95;9.98;;;10.50;99.90;;;;;;5024912;28;20088;-67
2024/02/15 01:09:53;;;;;;;15.60;10.40;;;10.50;99.90;;;;;;5015460;28;20037;-66
2024/02/15 01:12:22;;;;;;;17.90;10.35;;;10.50;99.90;;;;;;5027791;28;20053;-66
2024/02/15 01:14:47;;;;;;;16.63;10.85;;;10.50;99.90;;;;;;5035595;28;20044;-65
2024/02/15 01:17:13;;;;;;;15.98;10.88;;;10.50;99.90;;;;;;5026268;28;20014;-65
2024/02/15 01:19:39;;;;;;;18.10;10.77;;;10.50;99.90;;;;;;5034907;28;20052;-65
2024/02/15 01:22:06;;;;;;;17.98;11.63;;;10.50;99.90;;;;;;5019477;28;20032;-66
2024/02/15 01:24:32;;;;;;;16.95;10.80;;;10.50;99.90;;;;;;5014961;28;20030;-66
2024/02/15 01:26:58;;;;;;;21.20;11.25;;;10.50;99.90;;;;;;5015821;28;20036;-65
2024/02/15 01:29:25;;;;;;;17.23;11.40;;;10.60;99.90;;;;;;5018597;28;20030;-65
2024/02/15 01:31:51;;;;;;;19.38;11.65;;;10.60;99.90;;;;;;5015368;28;20072;-65
2024/02/15 01:34:17;;;;;;;16.38;11.05;;;10.60;99.90;;;;;;5016303;28;20030;-65
2024/02/15 01:36:42;;;;;;;16.50;9.95;;;10.60;99.90;;;;;;5015339;28;20018;-65
2024/02/15 01:39:08;;;;;;;16.10;10.95;;;10.50;99.90;;;;;;5017196;28;20226;-65
2024/02/15 01:41:33;;;;;;;18.55;10.55;;;10.50;99.90;;;;;;5017454;28;20060;-64
2024/02/15 01:43:59;;;;;;;18.38;11.13;;;10.50;99.90;;;;;;5017651;28;20026;-65
2024/02/15 01:46:25;;;;;;;15.30;10.25;;;10.60;99.90;;;;;;5037175;28;20120;-65
2024/02/15 01:48:51;;;;;;;17.60;9.85;;;10.50;99.90;;;;;;5018405;28;20053;-64
2024/02/15 01:51:18;;;;;;;16.25;9.27;;;10.50;99.90;;;;;;5017129;28;20038;-65
2024/02/15 01:53:44;;;;;;;13.32;9.43;;;10.50;99.90;;;;;;5020950;28;20178;-64
2024/02/15 01:56:13;;;;;;;13.45;8.80;;;10.50;99.90;;;;;;5013655;28;20041;-65
2024/02/15 01:58:40;;;;;;;18.05;10.75;;;10.50;99.90;;;;;;5030669;28;20030;-65
2024/02/15 02:01:06;;;;;;;17.15;9.95;;;10.50;99.90;;;;;;5010800;28;20053;-66
2024/02/15 02:03:32;;;;;;;16.90;10.60;;;10.50;99.90;;;;;;5017761;28;20060;-64
2024/02/15 02:05:59;;;;;;;17.77;10.82;;;10.50;99.90;;;;;;5032163;28;20026;-64
2024/02/15 02:08:25;;;;;;;17.85;11.40;;;10.50;99.90;;;;;;5030909;28;20050;-65
2024/02/15 02:10:52;;;;;;;16.65;11.13;;;10.60;99.90;;;;;;5014921;28;20038;-65
2024/02/15 02:13:18;;;;;;;20.40;11.27;;;10.50;99.90;;;;;;5015806;28;20651;-66
2024/02/15 02:15:44;;;;;;;18.38;11.02;;;10.60;99.90;;;;;;5014473;28;20026;-65
2024/02/15 02:18:10;;;;;;;19.85;12.52;;;10.50;99.90;;;;;;5013682;28;20093;-64
2024/02/15 02:20:36;;;;;;;15.65;10.43;;;10.50;99.90;;;;;;5014558;28;20065;-65
2024/02/15 02:23:13;;;;;;;19.23;12.35;;;10.50;99.90;;;;;;5011992;28;20030;-65
2024/02/15 02:25:39;;;;;;;18.95;12.05;;;10.50;99.90;;;;;;5013899;28;20022;-64
2024/02/15 02:28:06;;;;;;;18.50;13.13;;;10.50;99.90;;;;;;5016558;28;20026;-66
2024/02/15 02:30:32;;;;;;;17.70;11.80;;;10.60;99.90;;;;;;5015635;28;20022;-64
2024/02/15 02:32:58;;;;;;;18.88;12.23;;;10.50;99.90;;;;;;5013791;28;20348;-66
2024/02/15 02:35:24;;;;;;;20.05;12.60;;;10.50;99.90;;;;;;5012787;28;20599;-65
2024/02/15 02:37:52;;;;;;;18.60;13.00;;;10.50;99.90;;;;;;5014974;28;20034;-64
2024/02/15 02:40:19;;;;;;;18.98;12.70;;;10.50;99.90;;;;;;5015169;28;20029;-65
2024/02/15 02:42:55;;;;;;;19.08;12.18;;;10.50;99.90;;;;;;5016516;28;20026;-65
2024/02/15 02:45:22;;;;;;;16.35;11.43;;;10.50;99.90;;;;;;5022947;28;20029;-65
2024/02/15 02:47:51;;;;;;;21.42;13.65;;;10.50;99.90;;;;;;5021503;28;20141;-65
2024/02/15 02:50:17;;;;;;;20.58;13.27;;;10.50;99.90;;;;;;5021616;28;20041;-66
2024/02/15 02:52:43;;;;;;;21.75;12.05;;;10.50;99.90;;;;;;5025205;28;20026;-65
2024/02/15 02:55:09;;;;;;;20.30;12.80;;;10.50;99.90;;;;;;5017961;28;20053;-64
2024/02/15 02:57:38;;;;;;;18.10;12.93;;;10.50;99.90;;;;;;5018399;28;20026;-65
2024/02/15 03:00:07;;;;;;;17.77;12.20;;;10.60;99.90;;;;;;5033842;28;20044;-65
2024/02/15 03:02:37;;;;;;;18.27;12.02;;;10.60;99.90;;;;;;5018283;28;20126;-65
2024/02/15 03:05:04;;;;;;;17.27;12.20;;;10.60;99.90;;;;;;5036034;28;20023;-66
2024/02/15 03:07:32;;;;;;;20.77;12.93;;;10.60;99.90;;;;;;5017114;28;20038;-64
2024/02/15 03:09:58;;;;;;;17.50;10.88;;;10.50;99.90;;;;;;5029959;28;20033;-64
2024/02/15 03:12:26;;;;;;;15.15;11.13;;;10.50;99.90;;;;;;5015379;28;20401;-64
2024/02/15 03:14:52;;;;;;;14.38;10.68;;;10.50;99.90;;;;;;5035776;28;20093;-65
2024/02/15 03:17:17;;;;;;;15.18;11.00;;;10.50;99.90;;;;;;5015412;28;20045;-65
2024/02/15 03:19:43;;;;;;;17.27;11.73;;;10.60;99.90;;;;;;5016194;28;20611;-65
2024/02/15 03:22:08;;;;;;;17.48;11.50;;;10.60;99.90;;;;;;5016311;28;20603;-65
2024/02/15 03:24:34;;;;;;;18.20;11.77;;;10.60;99.90;;;;;;5016438;28;20026;-64
2024/02/15 03:26:59;;;;;;;17.65;11.18;;;10.60;99.90;;;;;;5024932;28;20049;-66
2024/02/15 03:29:25;;;;;;;16.83;10.10;;;10.60;99.90;;;;;;5040853;28;20090;-65
2024/02/15 03:31:53;;;;;;;14.75;11.02;;;10.60;99.90;;;;;;5023146;28;20034;-65
2024/02/15 03:34:21;;;;;;;16.25;10.68;;;10.60;99.90;;;;;;5022923;28;20545;-66
2024/02/15 03:36:51;;;;;;;17.25;11.73;;;10.60;99.90;;;;;;5026981;28;20044;-65
2024/02/15 03:39:17;;;;;;;14.30;10.43;;;10.60;99.90;;;;;;5023456;28;20025;-66
2024/02/15 03:41:45;;;;;;;17.77;11.43;;;10.60;99.90;;;;;;5033376;28;20050;-65
2024/02/15 03:44:11;;;;;;;17.83;12.05;;;10.60;99.90;;;;;;5043822;28;20014;-65
2024/02/15 03:46:37;;;;;;;16.13;9.90;;;10.60;99.90;;;;;;5031730;28;20214;-65
2024/02/15 03:49:02;;;;;;;14.93;10.48;;;10.60;99.90;;;;;;5029755;28;20037;-65
2024/02/15 03:51:28;;;;;;;20.95;10.85;;;10.60;99.90;;;;;;5027998;28;20060;-65
2024/02/15 03:53:54;;;;;;;15.88;10.98;;;10.60;99.90;;;;;;5025121;28;20144;-65
2024/02/15 03:56:21;;;;;;;15.27;10.02;;;10.60;99.90;;;;;;5032887;28;20009;-65
2024/02/15 03:58:47;;;;;;;18.60;11.90;;;10.70;99.90;;;;;;5022621;28;20030;-65
2024/02/15 04:01:15;;;;;;;19.58;10.73;;;10.70;99.90;;;;;;5028698;28;20671;-65
2024/02/15 04:03:41;;;;;;;18.50;11.55;;;10.60;99.90;;;;;;5026947;28;20005;-65
2024/02/15 04:06:06;;;;;;;18.77;11.82;;;10.70;99.90;;;;;;5026753;28;20060;-66
2024/02/15 04:08:33;;;;;;;23.17;11.88;;;10.70;99.90;;;;;;5027756;28;20017;-65
2024/02/15 04:10:59;;;;;;;19.63;11.00;;;10.70;99.90;;;;;;5027899;28;20025;-65
2024/02/15 04:13:24;;;;;;;22.85;12.68;;;10.60;99.90;;;;;;5025289;28;20036;-65
2024/02/15 04:15:52;;;;;;;19.55;12.10;;;10.70;99.90;;;;;;5027363;28;20033;-65
2024/02/15 04:18:19;;;;;;;22.92;13.38;;;10.70;99.90;;;;;;5016646;28;20098;-65
2024/02/15 04:20:46;;;;;;;20.67;12.68;;;10.70;99.90;;;;;;5015725;28;20001;-64
2024/02/15 04:23:12;;;;;;;23.15;13.10;;;10.70;99.90;;;;;;5021853;28;20028;-65
2024/02/15 04:25:38;;;;;;;23.67;12.40;;;10.70;99.90;;;;;;5024241;28;20030;-64
2024/02/15 04:28:04;;;;;;;20.40;12.55;;;10.70;99.90;;;;;;5025015;28;20937;-65
2024/02/15 04:30:31;;;;;;;21.48;13.15;;;10.70;99.90;;;;;;5024853;28;20091;-64
2024/02/15 04:32:56;;;;;;;21.75;12.50;;;10.70;99.90;;;;;;5027002;28;20045;-65
2024/02/15 04:35:22;;;;;;;22.52;13.50;;;10.70;99.90;;;;;;5019262;28;20033;-65
2024/02/15 04:37:49;;;;;;;20.67;11.30;;;10.70;99.90;;;;;;5015538;28;20037;-65
2024/02/15 04:40:15;;;;;;;22.98;11.13;;;10.70;99.90;;;;;;5013809;28;20064;-65
2024/02/15 04:42:41;;;;;;;22.25;12.20;;;10.70;99.90;;;;;;5018886;28;20026;-65
2024/02/15 04:45:08;;;;;;;24.67;12.70;;;10.70;99.90;;;;;;5028478;28;20064;-65
2024/02/15 04:47:34;;;;;;;26.02;13.20;;;10.70;99.90;;;;;;5011009;28;20801;-65
2024/02/15 04:50:00;;;;;;;21.95;13.93;;;10.70;99.90;;;;;;5020505;28;20029;-64
2024/02/15 04:52:26;;;;;;;22.08;12.07;;;10.70;99.90;;;;;;5017654;28;20048;-65
2024/02/15 04:54:54;;;;;;;25.38;12.40;;;10.70;99.90;;;;;;5012993;28;20022;-66
2024/02/15 04:57:20;;;;;;;26.38;13.52;;;10.70;99.90;;;;;;5017606;28;20026;-65
2024/02/15 04:59:47;;;;;;;22.02;13.10;;;10.70;99.90;;;;;;5008508;28;20147;-65
2024/02/15 05:02:13;;;;;;;25.05;13.85;;;10.70;99.90;;;;;;5009993;28;20041;-64
2024/02/15 05:04:42;;;;;;;25.30;12.65;;;10.70;99.90;;;;;;5025108;28;20028;-65
2024/02/15 05:07:08;;;;;;;25.67;12.68;;;10.70;99.90;;;;;;5019672;28;20136;-66
2024/02/15 05:09:34;;;;;;;25.33;12.15;;;10.70;99.90;;;;;;5029309;28;20414;-65
2024/02/15 05:12:02;;;;;;;22.95;13.10;;;10.70;99.90;;;;;;5018675;28;20021;-65
2024/02/15 05:14:28;;;;;;;24.88;12.88;;;10.70;99.90;;;;;;5021613;28;20021;-65
2024/02/15 05:16:53;;;;;;;23.08;13.30;;;10.70;99.90;;;;;;5018084;28;20025;-66
2024/02/15 05:19:19;;;;;;;25.25;13.90;;;10.70;99.90;;;;;;5022585;28;20034;-65
2024/02/15 05:21:45;;;;;;;27.08;13.55;;;10.70;99.90;;;;;;5023198;28;20037;-66
2024/02/15 05:24:15;;;;;;;22.33;12.40;;;10.70;99.90;;;;;;5023795;28;20033;-66
2024/02/15 05:26:48;;;;;;;22.73;13.35;;;10.70;99.90;;;;;;5020953;28;20029;-65
2024/02/15 05:29:14;;;;;;;23.98;13.65;;;10.70;99.90;;;;;;5022265;28;20028;-65
2024/02/15 05:31:40;;;;;;;21.58;12.68;;;10.70;99.90;;;;;;5014858;28;20022;-65
2024/02/15 05:34:11;;;;;;;22.35;12.23;;;10.70;99.90;;;;;;5021397;28;20101;-65
2024/02/15 05:36:38;;;;;;;22.95;12.32;;;10.70;99.90;;;;;;5016929;28;20592;-66
2024/02/15 05:39:04;;;;;;;22.13;11.70;;;10.70;99.90;;;;;;5024501;28;20095;-65
2024/02/15 05:41:32;;;;;;;26.13;12.52;;;10.70;99.90;;;;;;5019918;28;20033;-65
2024/02/15 05:43:57;;;;;;;22.60;12.27;;;10.70;99.90;;;;;;5013122;28;20521;-65
2024/02/15 05:46:24;;;;;;;20.70;11.65;;;10.80;99.90;;;;;;5025667;28;20112;-64
2024/02/15 05:48:49;;;;;;;30.35;13.38;;;10.70;99.90;;;;;;5015949;28;20072;-64
2024/02/15 05:51:15;;;;;;;22.02;12.63;;;10.70;99.90;;;;;;5023003;28;20033;-66
2024/02/15 05:53:42;;;;;;;21.13;12.45;;;10.70;99.90;;;;;;5023503;28;21698;-66
2024/02/15 05:56:10;;;;;;;22.42;13.00;;;10.70;99.90;;;;;;5023739;28;20022;-66
2024/02/15 05:58:36;;;;;;;21.15;12.77;;;10.80;99.90;;;;;;5026960;28;20006;-66
2024/02/15 06:01:06;;;;;;;23.35;14.13;;;10.70;99.90;;;;;;5021437;28;20217;-66
2024/02/15 06:03:33;;;;;;;22.38;12.40;;;10.80;99.90;;;;;;5027134;28;20017;-65
2024/02/15 06:06:06;;;;;;;21.80;13.50;;;10.70;99.90;;;;;;5022064;28;20030;-66
2024/02/15 06:08:32;;;;;;;27.58;14.60;;;10.70;99.90;;;;;;5028091;28;20014;-66
2024/02/15 06:10:58;;;;;;;22.25;12.23;;;10.80;99.90;;;;;;5025143;28;20036;-65
2024/02/15 06:13:25;;;;;;;26.48;12.75;;;10.70;99.90;;;;;;5019163;28;20021;-66
2024/02/15 06:15:53;;;;;;;22.30;11.98;;;10.70;99.90;;;;;;5034760;28;20025;-66
2024/02/15 06:18:21;;;;;;;23.17;12.38;;;10.70;99.90;;;;;;5020621;28;20089;-66
2024/02/15 06:20:49;;;;;;;22.52;12.98;;;10.70;99.90;;;;;;5030390;28;20390;-65
2024/02/15 06:23:15;;;;;;;21.50;13.20;;;10.70;99.90;;;;;;5028200;28;20030;-65
2024/02/15 06:25:41;;;;;;;20.83;12.63;;;10.80;99.90;;;;;;5029907;28;20014;-65
2024/02/15 06:28:13;;;;;;;27.05;14.90;;;10.70;99.90;;;;;;5023052;28;20033;-66
2024/02/15 06:41:40;;;;;;;26.23;13.85;;;10.80;99.90;;;;;;5029410;28;20045;-65
2024/02/15 06:44:06;;;;;;;24.27;14.70;;;10.80;99.90;;;;;;5023824;28;20022;-65
2024/02/15 06:46:31;;;;;;;22.77;12.45;;;10.80;99.90;;;;;;5030140;28;20030;-65
2024/02/15 06:48:58;;;;;;;25.08;13.63;;;10.70;99.90;;;;;;5013815;28;20022;-66
2024/02/15 06:51:24;;;;;;;24.02;14.05;;;10.80;99.90;;;;;;5020471;28;20029;-65
2024/02/15 06:53:51;;;;;;;28.65;19.80;;;10.80;99.90;;;;;;5022742;28;20025;-65
2024/02/15 06:56:20;;;;;;;26.70;15.98;;;10.80;99.90;;;;;;5020920;28;20041;-65
2024/02/15 06:58:46;;;;;;;27.85;18.25;;;10.80;99.90;;;;;;5027524;28;20480;-65
2024/02/15 07:01:13;;;;;;;20.95;13.45;;;10.80;99.90;;;;;;5022412;28;20016;-66
2024/02/15 07:03:39;;;;;;;22.88;14.48;;;10.80;99.90;;;;;;5031409;28;20018;-66
2024/02/15 07:06:05;;;;;;;28.23;15.55;;;10.80;99.90;;;;;;5028996;28;20034;-66
2024/02/15 07:08:31;;;;;;;28.02;15.88;;;10.80;99.90;;;;;;5027406;28;20073;-65
2024/02/15 07:10:58;;;;;;;31.52;16.70;;;10.80;99.90;;;;;;5020804;28;20033;-66
2024/02/15 07:13:26;;;;;;;29.35;16.33;;;10.80;99.90;;;;;;5023679;28;20022;-66
2024/02/15 07:15:52;;;;;;;32.25;18.90;;;10.80;99.90;;;;;;5024717;28;20570;-65
2024/02/15 07:18:22;;;;;;;31.05;18.02;;;10.80;99.90;;;;;;5022326;28;20034;-66
2024/02/15 07:20:47;;;;;;;32.70;17.10;;;10.80;99.90;;;;;;5022225;28;20026;-66
2024/02/15 07:23:13;;;;;;;34.03;19.23;;;10.80;99.90;;;;;;5022803;28;20086;-65
2024/02/15 07:25:39;;;;;;;35.45;19.73;;;10.80;99.90;;;;;;5026151;28;20099;-65
2024/02/15 07:28:05;;;;;;;39.47;19.27;;;10.80;99.90;;;;;;5027072;28;20026;-66
2024/02/15 07:30:31;;;;;;;39.92;18.00;;;10.80;99.90;;;;;;5022493;28;20036;-65
2024/02/15 07:32:57;;;;;;;35.03;17.27;;;10.90;99.90;;;;;;5020234;28;20030;-65
2024/02/15 07:35:24;;;;;;;39.40;19.65;;;10.80;99.90;;;;;;5018268;28;20029;-65
2024/02/15 07:37:55;;;;;;;36.83;19.67;;;10.90;99.90;;;;;;5016801;28;20036;-65
2024/02/15 07:40:22;;;;;;;33.60;17.50;;;10.90;99.90;;;;;;5028994;28;20061;-65
2024/02/15 07:42:49;;;;;;;35.17;16.80;;;10.90;99.90;;;;;;5023699;28;20112;-65
2024/02/15 07:45:14;;;;;;;30.27;15.93;;;10.90;99.90;;;;;;5026146;28;20079;-66
2024/02/15 07:47:40;;;;;;;34.50;16.75;;;10.90;99.90;;;;;;5012283;28;20030;-66
2024/02/15 07:50:06;;;;;;;31.88;17.52;;;10.90;99.90;;;;;;5021519;28;20424;-65
2024/02/15 07:52:33;;;;;;;27.80;15.57;;;10.90;99.90;;;;;;5011075;28;20168;-65
2024/02/15 07:54:58;;;;;;;35.20;16.48;;;10.90;99.90;;;;;;5020499;28;20018;-66
2024/02/15 07:57:25;;;;;;;27.38;15.80;;;10.90;99.90;;;;;;5017438;28;20113;-66
2024/02/15 07:59:50;;;;;;;31.02;16.25;;;10.90;99.90;;;;;;5020193;28;20030;-65
2024/02/15 08:02:22;;;;;;;29.42;15.95;;;10.90;99.90;;;;;;5012372;28;20049;-65
2024/02/15 08:04:48;;;;;;;28.02;15.55;;;10.90;99.90;;;;;;5012469;28;20045;-65
2024/02/15 08:07:14;;;;;;;22.13;13.90;;;10.90;99.90;;;;;;5014503;28;20095;-65
2024/02/15 08:09:41;;;;;;;24.27;12.90;;;10.90;99.90;;;;;;5016578;28;20021;-65
2024/02/15 08:12:07;;;;;;;28.45;14.60;;;11.00;99.90;;;;;;5012269;28;20033;-65
2024/02/15 08:14:32;;;;;;;26.02;13.57;;;10.90;99.90;;;;;;5016316;28;20034;-66
2024/02/15 08:16:58;;;;;;;22.80;13.50;;;10.90;99.90;;;;;;5021055;28;20030;-66
2024/02/15 08:19:24;;;;;;;29.15;13.60;;;11.00;99.90;;;;;;5019291;28;20030;-65
2024/02/15 08:21:50;;;;;;;22.67;12.48;;;11.00;99.90;;;;;;5014175;28;20800;-66
2024/02/15 08:24:16;;;;;;;21.73;11.35;;;11.00;99.90;;;;;;5017071;28;20097;-65
2024/02/15 08:26:42;;;;;;;19.15;11.32;;;10.90;99.90;;;;;;5015137;28;20115;-65
2024/02/15 08:29:13;;;;;;;22.15;12.35;;;10.90;99.90;;;;;;5010859;28;20026;-66
2024/02/15 08:31:39;;;;;;;21.75;12.13;;;10.90;99.90;;;;;;5017682;28;20434;-65
2024/02/15 08:34:10;;;;;;;20.65;11.80;;;11.00;99.90;;;;;;5012517;28;20030;-65
2024/02/15 08:36:36;;;;;;;20.40;11.50;;;11.00;99.90;;;;;;5007220;28;20048;-65
2024/02/15 08:39:03;;;;;;;21.80;11.25;;;11.00;99.90;;;;;;5012784;28;20049;-66
2024/02/15 08:41:29;;;;;;;22.63;11.60;;;11.00;99.90;;;;;;5023845;28;20041;-65
2024/02/15 08:43:58;;;;;;;23.38;11.70;;;11.00;99.90;;;;;;5011924;28;20026;-66
2024/02/15 08:46:25;;;;;;;24.95;12.95;;;11.00;99.90;;;;;;5013187;28;20033;-65
2024/02/15 08:48:51;;;;;;;25.45;13.43;;;11.10;99.90;;;;;;5011905;28;20105;-65
2024/02/15 08:51:17;;;;;;;28.45;15.50;;;11.10;99.90;;;;;;5011132;28;20125;-65
2024/02/15 08:53:43;;;;;;;27.95;17.02;;;11.10;99.90;;;;;;5003874;28;20021;-65
2024/02/15 08:56:10;;;;;;;34.88;22.10;;;11.10;99.90;;;;;;5012308;28;20025;-65
2024/02/15 08:58:35;;;;;;;42.65;24.08;;;11.10;99.90;;;;;;5002145;28;20119;-65
2024/02/15 09:01:02;;;;;;;44.88;25.48;;;11.20;99.90;;;;;;5009819;28;20497;-65
2024/02/15 09:03:28;;;;;;;39.45;20.45;;;11.20;99.90;;;;;;5003172;28;20108;-65
2024/02/15 09:05:54;;;;;;;29.10;17.80;;;11.20;99.90;;;;;;5012551;28;20351;-66
2024/02/15 09:08:22;;;;;;;37.05;22.27;;;11.20;99.90;;;;;;5011066;28;20459;-65
2024/02/15 09:10:49;;;;;;;31.52;18.52;;;11.30;99.90;;;;;;5009556;28;20030;-65
2024/02/15 09:13:15;;;;;;;24.80;15.63;;;11.30;99.90;;;;;;5010953;28;20034;-65
2024/02/15 09:15:41;;;;;;;24.70;15.95;;;11.30;99.90;;;;;;5008575;28;20026;-65
2024/02/15 09:18:09;;;;;;;33.58;19.33;;;11.30;99.90;;;;;;5010525;28;20026;-65
2024/02/15 09:20:38;;;;;;;25.52;15.00;;;11.40;99.90;;;;;;5010011;28;20034;-66
2024/02/15 09:23:09;;;;;;;28.00;15.27;;;11.40;99.90;;;;;;5000979;28;20028;-65
2024/02/15 09:25:46;;;;;;;39.15;19.83;;;11.40;99.90;;;;;;5003914;28;20121;-66
2024/02/15 09:28:14;;;;;;;31.98;17.98;;;11.50;99.90;;;;;;5009152;28;20037;-65
2024/02/15 09:30:46;;;;;;;27.83;16.52;;;11.50;99.90;;;;;;5010773;28;20025;-65
2024/02/15 09:33:15;;;;;;;30.83;17.95;;;11.50;99.90;;;;;;5010204;28;20214;-65
2024/02/15 09:35:42;;;;;;;28.42;15.82;;;11.50;99.90;;;;;;5008332;28;20026;-65
2024/02/15 09:38:09;;;;;;;32.08;17.50;;;11.60;99.90;;;;;;5006812;28;20030;-65
2024/02/15 09:40:38;;;;;;;49.85;24.80;;;11.60;99.90;;;;;;5002901;28;20041;-66
2024/02/15 09:43:08;;;;;;;34.10;19.30;;;11.60;99.90;;;;;;5008900;28;20508;-65
2024/02/15 09:45:37;;;;;;;30.10;18.27;;;11.70;99.90;;;;;;5025914;28;20502;-65
2024/02/15 09:48:09;;;;;;;30.20;16.55;;;11.70;99.90;;;;;;5007909;28;20393;-65
2024/02/15 09:50:38;;;;;;;56.35;27.35;;;11.70;99.90;;;;;;5005685;28;20113;-65
2024/02/15 09:53:06;;;;;;;40.33;21.38;;;11.70;99.90;;;;;;5007069;28;20022;-65
2024/02/15 09:55:34;;;;;;;34.90;20.23;;;11.70;99.90;;;;;;5013160;28;20116;-66
2024/02/15 09:58:01;;;;;;;39.08;20.10;;;11.70;99.90;;;;;;5012913;28;20159;-65
2024/02/15 10:00:27;;;;;;;22.13;13.75;;;11.80;99.90;;;;;;5010741;28;20030;-65
2024/02/15 10:02:55;;;;;;;19.42;11.60;;;11.70;99.90;;;;;;5005997;28;20040;-65
2024/02/15 10:05:23;;;;;;;13.80;10.02;;;11.80;99.90;;;;;;5010181;28;20030;-65
2024/02/15 10:07:49;;;;;;;16.75;10.70;;;11.80;99.90;;;;;;5015663;28;20025;-66
2024/02/15 10:10:25;;;;;;;17.90;10.40;;;11.80;99.90;;;;;;5035318;28;20273;-66
2024/02/15 10:12:56;;;;;;;14.60;9.73;;;11.80;99.90;;;;;;5027411;28;20037;-66
2024/02/15 10:15:34;;;;;;;19.27;10.85;;;11.80;99.90;;;;;;5017138;28;20147;-65
2024/02/15 10:18:04;;;;;;;18.27;10.45;;;11.80;99.90;;;;;;5013209;28;20062;-65
2024/02/15 10:20:30;;;;;;;15.70;9.90;;;11.90;99.90;;;;;;5017558;28;20030;-65
2024/02/15 10:23:03;;;;;;;19.95;11.75;;;11.90;99.90;;;;;;5017114;28;20025;-65
2024/02/15 10:25:36;;;;;;;18.13;10.57;;;11.90;99.90;;;;;;5027990;28;20053;-65
2024/02/15 10:28:09;;;;;;;18.33;11.38;;;11.90;99.90;;;;;;5016699;28;20026;-65
2024/02/15 10:30:37;;;;;;;17.00;10.50;;;11.90;99.90;;;;;;5028626;28;20315;-66
2024/02/15 10:33:08;;;;;;;18.63;11.35;;;11.90;99.90;;;;;;5015025;28;20022;-66
2024/02/15 10:35:35;;;;;;;14.32;11.05;;;11.90;99.90;;;;;;5016766;28;20026;-66
2024/02/15 10:38:10;;;;;;;21.27;12.43;;;12.00;99.90;;;;;;5009210;28;20033;-65
2024/02/15 10:40:41;;;;;;;15.63;10.80;;;12.00;99.90;;;;;;5011045;28;20048;-66
2024/02/15 10:43:08;;;;;;;16.00;10.90;;;12.00;99.90;;;;;;5021026;28;20037;-66
2024/02/15 10:45:37;;;;;;;19.02;12.55;;;12.00;99.90;;;;;;5017218;28;20030;-66
2024/02/15 10:48:08;;;;;;;22.58;11.57;;;12.00;99.90;;;;;;5017306;28;20030;-65
2024/02/15 10:50:35;;;;;;;14.88;9.93;;;12.10;99.90;;;;;;5014320;28;20509;-65
2024/02/15 10:53:14;;;;;;;15.88;11.48;;;12.10;99.90;;;;;;5018955;28;20022;-65
2024/02/15 10:55:58;;;;;;;19.17;12.63;;;12.10;99.90;;;;;;5017309;28;20041;-66
2024/02/15 10:58:32;;;;;;;17.77;11.98;;;12.10;99.90;;;;;;5017684;28;20029;-65
2024/02/15 11:01:01;;;;;;;15.13;10.90;;;12.10;99.90;;;;;;5016722;28;20030;-65
2024/02/15 11:03:35;;;;;;;21.70;13.40;;;12.10;99.90;;;;;;5022272;28;20084;-66
2024/02/15 11:06:06;;;;;;;18.70;13.77;;;12.20;99.90;;;;;;5022329;28;20030;-65
2024/02/15 11:08:32;;;;;;;22.25;12.55;;;12.20;99.90;;;;;;5020664;28;20029;-65
2024/02/15 11:10:59;;;;;;;20.88;12.95;;;12.20;99.90;;;;;;5018576;28;20030;-65
2024/02/15 11:13:24;;;;;;;22.00;13.00;;;12.20;99.90;;;;;;5020708;28;20025;-66
2024/02/15 11:15:53;;;;;;;17.10;12.23;;;12.20;99.90;;;;;;5021667;28;20085;-65
2024/02/15 11:18:51;;;;;;;20.92;14.68;;;12.20;99.90;;;;;;5021565;28;20022;-65
2024/02/15 11:21:18;;;;;;;22.50;13.05;;;12.30;99.90;;;;;;5013558;28;20029;-66
2024/02/15 11:23:44;;;;;;;21.80;13.23;;;12.30;99.90;;;;;;5017718;28;20025;-65
2024/02/15 11:26:48;;;;;;;22.45;13.30;;;12.30;99.90;;;;;;5017550;28;20109;-66
2024/02/15 11:29:53;;;;;;;22.48;14.45;;;12.30;99.90;;;;;;5014295;28;20018;-66
2024/02/15 11:32:56;;;;;;;23.50;12.73;;;12.30;99.90;;;;;;5016851;28;20109;-66
2024/02/15 11:35:25;;;;;;;19.63;12.75;;;12.30;99.90;;;;;;4959137;28;20086;-65
2024/02/15 11:40:17;;;;;;;24.77;13.70;;;12.30;99.90;;;;;;5011721;28;20117;-65
2024/02/15 11:42:43;;;;;;;21.40;13.10;;;12.30;99.90;;;;;;5012015;28;20049;-66
2024/02/15 11:45:09;;;;;;;18.75;12.95;;;12.20;99.90;;;;;;5012977;28;20119;-66
2024/02/15 11:47:43;;;;;;;20.83;13.90;;;12.30;99.90;;;;;;5012625;28;20029;-65
2024/02/15 11:50:14;;;;;;;19.55;13.15;;;12.20;99.90;;;;;;5010544;28;20054;-65
2024/02/15 11:52:50;;;;;;;22.35;13.95;;;12.20;99.90;;;;;;5010961;28;20101;-66
2024/02/15 11:55:22;;;;;;;20.20;13.90;;;12.20;99.90;;;;;;5015111;28;20117;-65
2024/02/15 11:58:04;;;;;;;25.48;13.93;;;12.20;99.90;;;;;;5008899;28;20528;-65
2024/02/15 12:19:44;;;;;;;21.33;14.20;;;12.20;99.90;;;;;;5009345;28;20041;-64
2024/02/15 12:22:10;;;;;;;18.48;14.48;;;12.30;99.90;;;;;;5004084;28;20026;-65
2024/02/15 12:24:36;;;;;;;22.10;16.58;;;12.20;99.90;;;;;;5008530;28;20049;-64
2024/02/15 12:27:03;;;;;;;22.08;14.38;;;12.30;99.90;;;;;;5008739;28;20433;-64
2024/02/15 12:29:29;;;;;;;17.63;13.13;;;12.20;99.90;;;;;;5008076;28;20029;-64
2024/02/15 12:31:55;;;;;;;19.77;13.82;;;12.30;99.90;;;;;;5025534;28;20022;-64
2024/02/15 12:34:20;;;;;;;22.50;13.70;;;12.30;99.90;;;;;;5009797;28;20022;-65
2024/02/15 12:36:49;;;;;;;18.15;13.07;;;12.30;99.90;;;;;;5012727;28;20033;-65
2024/02/15 12:39:23;;;;;;;16.08;11.77;;;12.20;99.90;;;;;;5007370;28;20161;-65
2024/02/15 12:41:52;;;;;;;17.73;13.77;;;12.20;99.90;;;;;;5012689;28;20030;-64
2024/02/15 12:44:22;;;;;;;17.88;11.98;;;12.20;99.90;;;;;;5009382;28;20025;-65
2024/02/15 12:46:55;;;;;;;18.05;11.35;;;12.20;99.90;;;;;;5002533;28;20044;-64
2024/02/15 12:49:20;;;;;;;15.98;10.32;;;12.20;99.90;;;;;;5014478;28;20025;-64
2024/02/15 12:52:45;;;;;;;18.75;12.07;;;12.20;99.90;;;;;;5012857;28;20549;-65
2024/02/15 12:55:24;;;;;;;16.45;11.77;;;12.20;99.90;;;;;;4965648;28;20031;-65
2024/02/15 12:57:51;;;;;;;17.85;10.40;;;12.20;99.90;;;;;;4963127;28;20062;-64
2024/02/15 13:00:22;;;;;;;15.13;9.55;;;12.20;99.90;;;;;;4990659;28;20049;-65
2024/02/15 13:02:49;;;;;;;15.50;10.10;;;12.20;99.90;;;;;;5006754;28;20733;-63
2024/02/15 13:05:15;;;;;;;16.83;12.55;;;12.20;99.90;;;;;;5005454;28;20529;-64